createdAt,value
2022-12-05T00:00:17.440Z,100368.19
2022-12-05T00:01:42.725Z,100372.41
2022-12-05T00:03:06.056Z,100373.28
2022-12-05T00:04:27.520Z,100374.97
2022-12-05T00:05:49.738Z,100366.00
2022-12-05T00:07:13.721Z,100365.06
2022-12-05T00:08:34.862Z,100362.38
2022-12-05T00:09:57.074Z,100356.09
2022-12-05T00:11:20.484Z,100359.59
2022-12-05T00:12:42.748Z,100363.22
2022-12-05T00:14:05.258Z,100361.28
2022-12-05T00:15:27.317Z,100353.44
2022-12-05T00:16:49.178Z,100358.75
2022-12-05T00:18:10.471Z,100357.81
2022-12-05T00:19:32.542Z,100356.94
2022-12-05T00:20:53.497Z,100355.13
2022-12-05T00:22:17.164Z,100356.09
2022-12-05T00:23:37.970Z,100349.81
2022-12-05T00:24:59.754Z,100353.31
2022-12-05T00:26:21.074Z,100347.03
2022-12-05T00:27:42.847Z,100350.66
2022-12-05T00:29:04.486Z,100346.28
2022-12-05T00:30:29.383Z,100346.28
2022-12-05T00:31:51.577Z,100346.44
2022-12-05T00:33:12.338Z,100338.72
2022-12-05T00:34:34.564Z,100338.72
2022-12-05T00:35:57.788Z,100343.16
2022-12-05T00:37:20.935Z,100340.66
2022-12-05T00:38:45.568Z,100343.31
2022-12-05T00:40:08.864Z,100344.41
2022-12-05T00:41:30.919Z,100345.38
2022-12-05T00:42:55.665Z,100351.56
2022-12-05T00:44:16.574Z,100351.66
2022-12-05T00:45:38.479Z,100361.47
2022-12-05T00:46:59.638Z,100360.63
2022-12-05T00:48:21.820Z,100358.81
2022-12-05T00:49:45.001Z,100359.75
2022-12-05T00:51:09.145Z,100368.44
2022-12-05T00:52:32.671Z,100356.88
2022-12-05T00:53:54.006Z,100357.69
2022-12-05T00:55:15.745Z,100361.94
2022-12-05T00:56:36.435Z,100363.03
2022-12-05T00:57:58.246Z,100354.06
2022-12-05T00:59:21.423Z,100363.03
2022-12-05T01:00:42.282Z,100350.56
2022-12-05T01:02:04.168Z,100358.53
2022-12-05T01:03:24.884Z,100359.63
2022-12-05T01:04:46.895Z,100356.97
2022-12-05T01:06:12.396Z,100349.97
2022-12-05T01:07:34.708Z,100363.97
2022-12-05T01:08:57.859Z,100344.53
2022-12-05T01:10:22.167Z,100354.22
2022-12-05T01:11:44.124Z,100351.56
2022-12-05T01:13:06.341Z,100351.56
2022-12-05T01:14:29.090Z,100347.19
2022-12-05T01:15:50.393Z,100347.91
2022-12-05T01:17:12.478Z,100351.28
2022-12-05T01:18:33.720Z,100357.44
2022-12-05T01:19:55.826Z,100350.19
2022-12-05T01:21:17.506Z,100358.16
2022-12-05T01:22:40.929Z,100365.88
2022-12-05T01:24:02.240Z,100364.91
2022-12-05T01:25:24.363Z,100356.94
2022-12-05T01:26:45.334Z,100360.56
2022-12-05T01:28:07.185Z,100349.09
2022-12-05T01:29:29.454Z,100350.66
2022-12-05T01:30:51.034Z,100342.69
2022-12-05T01:32:13.248Z,100340.97
2022-12-05T01:33:34.877Z,100348.84
2022-12-05T01:34:56.837Z,100330.34
2022-12-05T01:36:17.842Z,100341.25
2022-12-05T01:37:41.498Z,100336.75
2022-12-05T01:39:11.933Z,100323.47
2022-12-05T01:40:36.014Z,100336.91
2022-12-05T01:41:57.906Z,100335.34
2022-12-05T01:43:19.821Z,100343.31
2022-12-05T01:45:00.402Z,100339.09
2022-12-05T01:46:21.784Z,100325.91
2022-12-05T01:47:47.259Z,100336.44
2022-12-05T01:49:13.667Z,100332.22
2022-12-05T01:50:35.711Z,100341.03
2022-12-05T01:52:01.793Z,100336.69
2022-12-05T01:53:25.428Z,100335.72
2022-12-05T01:54:48.804Z,100330.41
2022-12-05T01:56:11.106Z,100341.88
2022-12-05T01:57:33.323Z,100339.22
2022-12-05T01:58:57.147Z,100337.53
2022-12-05T02:00:20.671Z,100335.72
2022-12-05T02:01:43.033Z,100336.56
2022-12-05T02:03:08.520Z,100337.38
2022-12-05T02:04:30.879Z,100332.78
2022-12-05T02:05:55.066Z,100341.50
2022-12-05T02:07:16.290Z,100347.53
2022-12-05T02:08:40.849Z,100335.91
2022-12-05T02:10:01.768Z,100342.94
2022-12-05T02:11:26.405Z,100331.31
2022-12-05T02:12:47.661Z,100328.56
2022-12-05T02:14:27.295Z,100325.75
2022-12-05T02:15:56.977Z,100324.78
2022-12-05T02:17:31.993Z,100323.81
2022-12-05T02:19:05.179Z,100325.53
2022-12-05T02:20:37.166Z,100323.97
2022-12-05T02:22:38.451Z,100331.06
2022-12-05T02:24:28.960Z,100322.38
2022-12-05T02:26:35.400Z,100319.72
2022-12-05T02:28:30.146Z,100315.38
2022-12-05T02:30:03.557Z,100319.84
2022-12-05T02:31:32.604Z,100321.78
2022-12-05T02:33:08.225Z,100322.63
2022-12-05T02:34:34.493Z,100323.63
2022-12-05T02:36:05.400Z,100317.47
2022-12-05T02:37:30.126Z,100311.41
2022-12-05T02:39:00.881Z,100319.25
2022-12-05T02:40:28.624Z,100316.59
2022-12-05T02:41:55.906Z,100319.25
2022-12-05T02:43:22.498Z,100316.59
2022-12-05T02:44:48.848Z,100314.91
2022-12-05T02:46:16.384Z,100318.41
2022-12-05T02:47:43.525Z,100313.94
2022-12-05T02:49:11.685Z,100318.56
2022-12-05T02:50:38.586Z,100321.22
2022-12-05T02:52:06.339Z,100317.69
2022-12-05T02:53:31.105Z,100317.00
2022-12-05T02:54:56.304Z,100314.34
2022-12-05T02:56:18.848Z,100307.19
2022-12-05T02:57:46.958Z,100319.50
2022-12-05T02:59:09.195Z,100318.66
2022-12-05T03:00:31.837Z,100323.16
2022-12-05T03:01:55.740Z,100319.66
2022-12-05T03:03:19.754Z,100323.97
2022-12-05T03:04:41.762Z,100316.84
2022-12-05T03:06:03.802Z,100321.44
2022-12-05T03:07:30.773Z,100316.84
2022-12-05T03:08:57.623Z,100319.38
2022-12-05T03:10:22.386Z,100317.56
2022-12-05T03:11:50.124Z,100313.09
2022-12-05T03:13:16.237Z,100313.94
2022-12-05T03:14:47.530Z,100312.13
2022-12-05T03:16:16.213Z,100315.63
2022-12-05T03:17:57.267Z,100308.59
2022-12-05T03:19:22.690Z,100312.00
2022-12-05T03:20:48.520Z,100312.00
2022-12-05T03:22:16.707Z,100309.34
2022-12-05T03:23:43.006Z,100306.69
2022-12-05T03:25:05.785Z,100308.59
2022-12-05T03:26:38.256Z,100304.28
2022-12-05T03:28:04.303Z,100303.56
2022-12-05T03:29:31.450Z,100301.88
2022-12-05T03:30:55.760Z,100299.34
2022-12-05T03:32:24.242Z,100302.00
2022-12-05T03:33:50.906Z,100294.16
2022-12-05T03:35:19.328Z,100297.78
2022-12-05T03:36:46.267Z,100305.03
2022-12-05T03:38:12.717Z,100301.53
2022-12-05T03:39:43.579Z,100302.50
2022-12-05T03:41:11.037Z,100299.00
2022-12-05T03:42:36.187Z,100296.22
2022-12-05T03:44:02.644Z,100292.72
2022-12-05T03:45:31.183Z,100294.53
2022-12-05T03:46:59.397Z,100296.31
2022-12-05T03:48:31.378Z,100289.34
2022-12-05T03:49:58.792Z,100292.97
2022-12-05T03:51:24.666Z,100291.28
2022-12-05T03:53:18.751Z,100279.06
2022-12-05T03:54:41.112Z,100287.88
2022-12-05T03:56:11.066Z,100279.91
2022-12-05T03:57:38.672Z,100279.22
2022-12-05T03:59:09.469Z,100285.50
2022-12-05T04:00:36.350Z,100286.47
2022-12-05T04:02:02.849Z,100286.47
2022-12-05T04:03:39.909Z,100295.41
2022-12-05T04:05:09.552Z,100298.06
2022-12-05T04:06:35.243Z,100286.59
2022-12-05T04:08:00.797Z,100297.09
2022-12-05T04:09:27.811Z,100294.44
2022-12-05T04:10:54.784Z,100297.94
2022-12-05T04:12:30.001Z,100282.97
2022-12-05T04:13:57.634Z,100286.47
2022-12-05T04:15:23.428Z,100289.97
2022-12-05T04:17:06.693Z,100290.94
2022-12-05T04:18:29.295Z,100292.75
2022-12-05T04:20:19.303Z,100288.41
2022-12-05T04:21:46.774Z,100292.06
2022-12-05T04:23:09.404Z,100281.41
2022-12-05T04:24:51.604Z,100293.84
2022-12-05T04:26:23.219Z,100286.97
2022-12-05T04:27:52.892Z,100298.47
2022-12-05T04:29:25.430Z,100297.59
2022-12-05T04:30:51.529Z,100299.53
2022-12-05T04:32:14.770Z,100293.38
2022-12-05T04:33:43.491Z,100300.50
2022-12-05T04:35:12.679Z,100290.00
2022-12-05T04:36:38.787Z,100293.63
2022-12-05T04:38:06.393Z,100296.41
2022-12-05T04:39:33.941Z,100292.78
2022-12-05T04:41:01.964Z,100291.09
2022-12-05T04:42:29.200Z,100287.47
2022-12-05T04:43:53.630Z,100290.84
2022-12-05T04:45:18.246Z,100294.47
2022-12-05T04:46:43.238Z,100290.00
2022-12-05T04:48:11.482Z,100299.78
2022-12-05T04:49:35.205Z,100296.16
2022-12-05T04:50:59.620Z,100302.31
2022-12-05T04:52:23.033Z,100297.00
2022-12-05T04:53:48.009Z,100295.19
2022-12-05T04:55:12.702Z,100305.81
2022-12-05T04:56:38.089Z,100301.50
2022-12-05T04:58:06.724Z,100298.81
2022-12-05T04:59:28.593Z,100307.63
2022-12-05T05:00:57.503Z,100310.16
2022-12-05T05:02:23.283Z,100311.03
2022-12-05T05:03:51.843Z,100312.59
2022-12-05T05:05:17.255Z,100311.59
2022-12-05T05:06:39.660Z,100312.22
2022-12-05T05:08:02.170Z,100319.19
2022-12-05T05:09:24.459Z,100318.09
2022-12-05T05:10:57.112Z,100317.00
2022-12-05T05:12:19.507Z,100312.53
2022-12-05T05:13:40.869Z,100299.13
2022-12-05T05:15:03.089Z,100294.66
2022-12-05T05:16:27.377Z,100290.06
2022-12-05T05:17:49.411Z,100296.09
2022-12-05T05:19:12.551Z,100300.44
2022-12-05T05:20:33.439Z,100296.94
2022-12-05T05:21:55.207Z,100309.03
2022-12-05T05:23:16.243Z,100302.00
2022-12-05T05:24:39.577Z,100307.19
2022-12-05T05:26:01.340Z,100312.38
2022-12-05T05:27:22.092Z,100313.09
2022-12-05T05:28:44.542Z,100310.31
2022-12-05T05:30:08.023Z,100313.69
2022-12-05T05:31:29.124Z,100315.25
2022-12-05T05:32:51.152Z,100314.28
2022-12-05T05:34:13.500Z,100316.81
2022-12-05T05:35:37.617Z,100315.00
2022-12-05T05:36:59.622Z,100322.00
2022-12-05T05:38:21.703Z,100318.38
2022-12-05T05:39:45.294Z,100327.06
2022-12-05T05:41:07.686Z,100316.44
2022-12-05T05:42:30.513Z,100311.97
2022-12-05T05:43:53.619Z,100315.47
2022-12-05T05:45:16.937Z,100318.13
2022-12-05T05:46:39.550Z,100312.06
2022-12-05T05:48:01.694Z,100319.94
2022-12-05T05:49:23.870Z,100308.59
2022-12-05T05:50:44.993Z,100317.28
2022-12-05T05:52:08.880Z,100320.06
2022-12-05T05:53:33.958Z,100319.34
2022-12-05T05:54:57.140Z,100319.47
2022-12-05T05:56:22.000Z,100320.56
2022-12-05T05:57:44.288Z,100325.16
2022-12-05T05:59:06.827Z,100324.34
2022-12-05T06:00:28.548Z,100320.81
2022-12-05T06:01:50.820Z,100314.66
2022-12-05T06:03:13.141Z,100314.66
2022-12-05T06:04:36.930Z,100312.00
2022-12-05T06:05:59.572Z,100314.66
2022-12-05T06:07:21.508Z,100310.31
2022-12-05T06:08:45.845Z,100312.13
2022-12-05T06:10:10.386Z,100315.75
2022-12-05T06:11:35.619Z,100318.41
2022-12-05T06:13:12.644Z,100319.38
2022-12-05T06:14:37.309Z,100317.56
2022-12-05T06:16:09.646Z,100313.22
2022-12-05T06:17:56.042Z,100311.53
2022-12-05T06:19:19.740Z,100314.34
2022-12-05T06:20:42.080Z,100326.75
2022-12-05T06:22:06.366Z,100324.97
2022-12-05T06:23:29.542Z,100316.13
2022-12-05T06:24:51.485Z,100314.44
2022-12-05T06:26:16.311Z,100328.72
2022-12-05T06:27:38.629Z,100316.53
2022-12-05T06:29:00.893Z,100309.38
2022-12-05T06:30:23.129Z,100318.31
2022-12-05T06:31:48.365Z,100316.63
2022-12-05T06:33:11.276Z,100320.25
2022-12-05T06:34:33.276Z,100327.38
2022-12-05T06:36:04.665Z,100318.69
2022-12-05T06:37:26.783Z,100314.34
2022-12-05T06:38:51.834Z,100318.00
2022-12-05T06:40:14.472Z,100316.28
2022-12-05T06:41:39.706Z,100318.94
2022-12-05T06:43:01.789Z,100318.09
2022-12-05T06:44:27.027Z,100314.47
2022-12-05T06:45:51.730Z,100317.13
2022-12-05T06:47:13.746Z,100310.25
2022-12-05T06:48:34.870Z,100314.47
2022-12-05T06:49:59.871Z,100314.34
2022-12-05T06:51:22.129Z,100308.94
2022-12-05T06:52:44.402Z,100310.59
2022-12-05T06:54:06.617Z,100317.13
2022-12-05T06:55:28.821Z,100320.50
2022-12-05T06:56:52.464Z,100308.19
2022-12-05T06:58:13.639Z,100298.28
2022-12-05T06:59:35.472Z,100302.63
2022-12-05T07:01:15.287Z,100296.31
2022-12-05T07:02:36.355Z,100292.72
2022-12-05T07:04:03.283Z,100295.25
2022-12-05T07:05:25.380Z,100293.28
2022-12-05T07:06:50.959Z,100292.47
2022-12-05T07:08:12.577Z,100295.97
2022-12-05T07:09:53.984Z,100294.16
2022-12-05T07:11:15.009Z,100302.00
2022-12-05T07:12:40.641Z,100305.50
2022-12-05T07:14:10.392Z,100312.50
2022-12-05T07:15:41.361Z,100304.66
2022-12-05T07:17:03.278Z,100302.84
2022-12-05T07:18:25.510Z,100300.16
2022-12-05T07:19:49.683Z,100302.84
2022-12-05T07:21:15.775Z,100306.34
2022-12-05T07:22:38.722Z,100317.00
2022-12-05T07:24:00.965Z,100308.16
2022-12-05T07:25:23.067Z,100307.06
2022-12-05T07:26:44.951Z,100302.72
2022-12-05T07:28:08.448Z,100307.91
2022-12-05T07:29:30.671Z,100319.25
2022-12-05T07:31:01.562Z,100312.25
2022-12-05T07:32:23.566Z,100314.91
2022-12-05T07:33:48.710Z,100320.13
2022-12-05T07:35:11.104Z,100322.78
2022-12-05T07:36:33.230Z,100322.78
2022-12-05T07:37:55.245Z,100318.16
2022-12-05T07:39:16.329Z,100320.94
2022-12-05T07:40:39.313Z,100317.19
2022-12-05T07:42:03.920Z,100319.84
2022-12-05T07:43:27.314Z,100317.03
2022-12-05T07:44:49.379Z,100323.25
2022-12-05T07:46:12.723Z,100326.72
2022-12-05T07:47:35.036Z,100321.31
2022-12-05T07:48:56.953Z,100335.44
2022-12-05T07:50:19.205Z,100329.84
2022-12-05T07:51:41.493Z,100332.25
2022-12-05T07:53:03.804Z,100332.97
2022-12-05T07:54:25.919Z,100339.00
2022-12-05T07:55:46.667Z,100341.66
2022-12-05T07:57:08.705Z,100336.09
2022-12-05T07:58:33.476Z,100329.69
2022-12-05T07:59:55.778Z,100339.22
2022-12-05T08:01:20.103Z,100342.59
2022-12-05T08:02:42.013Z,100338.94
2022-12-05T08:04:03.793Z,100340.06
2022-12-05T08:05:25.755Z,100339.94
2022-12-05T08:06:47.818Z,100345.13
2022-12-05T08:08:10.050Z,100341.50
2022-12-05T08:09:32.256Z,100337.84
2022-12-05T08:10:53.207Z,100337.72
2022-12-05T08:12:14.878Z,100340.13
2022-12-05T08:13:41.746Z,100331.31
2022-12-05T08:15:04.131Z,100339.03
2022-12-05T08:16:29.713Z,100345.06
2022-12-05T08:17:52.345Z,100343.13
2022-12-05T08:19:15.620Z,100341.19
2022-12-05T08:20:37.425Z,100353.41
2022-12-05T08:22:02.382Z,100356.06
2022-12-05T08:23:24.720Z,100351.56
2022-12-05T08:24:49.588Z,100346.13
2022-12-05T08:26:20.723Z,100346.97
2022-12-05T08:27:45.839Z,100346.69
2022-12-05T08:29:11.668Z,100353.59
2022-12-05T08:30:35.136Z,100343.94
2022-12-05T08:31:57.493Z,100351.75
2022-12-05T08:33:22.360Z,100349.09
2022-12-05T08:34:47.677Z,100358.78
2022-12-05T08:36:17.128Z,100331.00
2022-12-05T08:37:50.784Z,100349.97
2022-12-05T08:39:20.985Z,100351.75
2022-12-05T08:43:16.796Z,100353.69
2022-12-05T08:44:44.855Z,100360.84
2022-12-05T09:15:47.626Z,100326.06
2022-12-05T09:17:13.068Z,100333.78
2022-12-05T09:18:39.372Z,100328.06
2022-12-05T09:20:05.196Z,100324.84
2022-12-05T09:21:33.084Z,100319.25
2022-12-05T09:23:00.865Z,100318.41
2022-12-05T09:24:33.759Z,100328.53
2022-12-05T09:25:56.399Z,100339.78
2022-12-05T09:27:18.803Z,100336.13
2022-12-05T09:28:41.772Z,100333.34
2022-12-05T09:30:05.707Z,100326.59
2022-12-05T09:31:33.669Z,100323.81
2022-12-05T09:32:57.050Z,100329.13
2022-12-05T09:34:20.519Z,100329.81
2022-12-05T09:35:42.658Z,100331.16
2022-12-05T09:37:30.423Z,100331.81
2022-12-05T09:39:03.742Z,100332.81
2022-12-05T09:40:29.337Z,100333.41
2022-12-05T09:42:25.739Z,100322.16
2022-12-05T09:43:57.750Z,100317.69
2022-12-05T09:45:25.612Z,100319.13
2022-12-05T09:46:57.249Z,100328.00
2022-12-05T09:48:24.476Z,100316.63
2022-12-05T09:49:54.839Z,100329.16
2022-12-05T09:51:17.880Z,100317.09
2022-12-05T09:52:45.514Z,100314.75
2022-12-05T09:54:10.076Z,100323.28
2022-12-05T09:55:42.679Z,100325.84
2022-12-05T09:57:07.722Z,100309.41
2022-12-05T09:58:43.375Z,100313.38
2022-12-05T10:00:11.299Z,100317.56
2022-12-05T10:01:41.871Z,100312.97
2022-12-05T10:03:20.964Z,100315.34
2022-12-05T10:05:00.685Z,100310.75
2022-12-05T10:06:27.694Z,100312.19
2022-12-05T10:07:57.927Z,100305.72
2022-12-05T10:09:39.824Z,100303.91
2022-12-05T10:11:04.847Z,100306.28
2022-12-05T10:12:44.491Z,100312.34
2022-12-05T10:14:14.732Z,100307.84
2022-12-05T10:15:45.570Z,100309.56
2022-12-05T10:17:16.715Z,100305.19
2022-12-05T10:18:45.560Z,100294.69
2022-12-05T10:20:15.188Z,100300.84
2022-12-05T10:21:41.842Z,100304.34
2022-12-05T10:23:08.060Z,100305.06
2022-12-05T10:24:35.300Z,100298.75
2022-12-05T10:26:00.975Z,100302.13
2022-12-05T10:27:34.124Z,100293.41
2022-12-05T10:29:05.558Z,100300.56
2022-12-05T10:30:31.413Z,100300.56
2022-12-05T10:32:05.385Z,100289.09
2022-12-05T10:33:46.716Z,100299.72
2022-12-05T10:35:29.462Z,100298.31
2022-12-05T10:36:58.461Z,100300.00
2022-12-05T10:38:27.078Z,100304.47
2022-12-05T10:39:55.605Z,100300.13
2022-12-05T10:41:19.753Z,100297.47
2022-12-05T10:43:19.794Z,100295.78
2022-12-05T10:44:42.355Z,100292.13
2022-12-05T10:46:31.853Z,100292.13
2022-12-05T10:47:57.725Z,100291.44
2022-12-05T10:49:20.965Z,100301.97
2022-12-05T10:50:48.674Z,100295.78
2022-12-05T10:52:11.952Z,100302.78
2022-12-05T10:53:40.302Z,100298.47
2022-12-05T10:55:06.872Z,100296.63
2022-12-05T10:56:44.634Z,100300.00
2022-12-05T10:58:17.639Z,100287.53
2022-12-05T10:59:48.232Z,100299.03
2022-12-05T11:01:17.548Z,100300.69
2022-12-05T11:02:41.901Z,100303.13
2022-12-05T11:04:13.918Z,100307.44
2022-12-05T11:05:37.292Z,100305.50
2022-12-05T11:07:05.917Z,100300.03
2022-12-05T11:08:56.033Z,100296.28
2022-12-05T11:10:26.720Z,100299.50
2022-12-05T11:12:05.475Z,100290.38
2022-12-05T11:13:27.580Z,100298.09
2022-12-05T11:15:02.171Z,100291.66
2022-12-05T11:16:26.884Z,100293.06
2022-12-05T11:17:49.850Z,100294.63
2022-12-05T11:19:26.304Z,100294.34
2022-12-05T11:20:48.095Z,100300.09
2022-12-05T11:22:18.014Z,100292.81
2022-12-05T11:23:40.617Z,100297.47
2022-12-05T11:25:03.342Z,100297.19
2022-12-05T11:26:37.012Z,100287.38
2022-12-05T11:28:01.594Z,100293.25
2022-12-05T11:29:36.710Z,100297.75
2022-12-05T11:31:00.600Z,100292.31
2022-12-05T11:32:25.857Z,100296.63
2022-12-05T11:34:02.756Z,100289.63
2022-12-05T11:35:28.127Z,100289.63
2022-12-05T11:36:55.823Z,100284.31
2022-12-05T11:38:25.615Z,100277.28
2022-12-05T11:39:47.444Z,100284.31
2022-12-05T11:41:19.599Z,100288.09
2022-12-05T11:43:04.287Z,100281.88
2022-12-05T11:44:41.071Z,100273.91
2022-12-05T11:46:14.835Z,100280.22
2022-12-05T11:47:54.968Z,100278.50
2022-12-05T11:49:30.811Z,100266.31
2022-12-05T11:51:05.533Z,100277.69
2022-12-05T11:52:47.288Z,100267.19
2022-12-05T11:56:38.516Z,100275.84
2022-12-05T11:58:39.355Z,100278.38
2022-12-05T12:00:27.200Z,100271.09
2022-12-05T12:02:10.567Z,100268.56
2022-12-05T12:03:54.048Z,100267.03
2022-12-05T12:05:34.101Z,100267.88
2022-12-05T12:07:25.175Z,100266.91
2022-12-05T12:09:07.701Z,100256.38
2022-12-05T12:10:44.309Z,100272.50
2022-12-05T12:12:17.740Z,100257.78
2022-12-05T12:13:59.546Z,100262.69
2022-12-05T12:15:48.106Z,100246.97
2022-12-05T12:17:33.148Z,100256.09
2022-12-05T12:19:15.510Z,100253.56
2022-12-05T12:20:55.647Z,100252.56
2022-12-05T12:22:45.610Z,100257.91
2022-12-05T12:24:48.252Z,100251.03
2022-12-05T12:29:23.305Z,100262.53
2022-12-05T12:31:21.086Z,100247.66
2022-12-05T12:32:56.908Z,100251.03
2022-12-05T12:34:48.815Z,100255.66
2022-12-05T12:36:26.059Z,100251.88
2022-12-05T12:38:09.749Z,100242.50
2022-12-05T12:41:11.437Z,100240.06
2022-12-05T12:43:51.607Z,100242.63
2022-12-05T12:45:42.414Z,100252.28
2022-12-05T12:47:14.405Z,100253.16
2022-12-05T12:48:54.991Z,100256.66
2022-12-05T12:50:22.896Z,100249.50
2022-12-05T12:51:55.079Z,100257.38
2022-12-05T12:53:46.252Z,100245.16
2022-12-05T12:55:23.440Z,100247.13
2022-12-05T12:56:57.786Z,100239.81
2022-12-05T12:58:34.459Z,100253.00
2022-12-05T13:00:05.627Z,100249.38
2022-12-05T13:01:43.713Z,100250.03
2022-12-05T13:03:13.578Z,100250.75
2022-12-05T13:04:42.344Z,100254.00
2022-12-05T13:06:17.767Z,100253.72
2022-12-05T13:07:46.227Z,100254.56
2022-12-05T13:09:13.343Z,100256.41
2022-12-05T13:10:40.852Z,100263.16
2022-12-05T13:12:09.532Z,100256.13
2022-12-05T13:13:43.117Z,100259.47
2022-12-05T13:15:15.260Z,100257.63
2022-12-05T13:16:46.253Z,100257.50
2022-12-05T13:18:16.245Z,100267.34
2022-12-05T13:19:43.683Z,100267.47
2022-12-05T13:21:09.792Z,100266.63
2022-12-05T13:22:33.235Z,100260.28
2022-12-05T13:23:59.412Z,100267.47
2022-12-05T13:25:25.772Z,100268.28
2022-12-05T13:26:51.089Z,100270.00
2022-12-05T13:28:30.491Z,100273.41
2022-12-05T13:29:58.136Z,100265.41
2022-12-05T13:31:21.888Z,100269.75
2022-12-05T13:32:46.130Z,100275.78
2022-12-05T13:34:29.329Z,100269.59
2022-12-05T13:36:17.218Z,100268.75
2022-12-05T13:38:06.264Z,100275.91
2022-12-05T13:39:45.868Z,100286.28
2022-12-05T13:41:26.717Z,100289.66
2022-12-05T13:43:02.925Z,100282.50
2022-12-05T13:44:34.649Z,100276.19
2022-12-05T13:46:05.582Z,100276.50
2022-12-05T13:47:37.329Z,100278.56
2022-12-05T13:49:08.830Z,100274.25
2022-12-05T13:50:43.380Z,100274.91
2022-12-05T13:52:14.987Z,100268.03
2022-12-05T13:53:45.575Z,100265.53
2022-12-05T13:55:25.297Z,100260.31
2022-12-05T13:56:52.511Z,100274.91
2022-12-05T13:58:42.484Z,100262.44
2022-12-05T14:00:23.254Z,100273.25
2022-12-05T14:01:56.074Z,100271.41
2022-12-05T14:03:51.461Z,100269.75
2022-12-05T14:05:58.321Z,100270.69
2022-12-05T14:07:46.335Z,100271.69
2022-12-05T14:09:30.011Z,100268.91
2022-12-05T14:11:12.920Z,100265.53
2022-12-05T14:12:55.381Z,100272.41
2022-12-05T14:15:02.156Z,100277.03
2022-12-05T14:16:49.792Z,100283.19
2022-12-05T14:18:17.625Z,100268.31
2022-12-05T14:19:55.491Z,100267.34
2022-12-05T14:21:23.776Z,100265.53
2022-12-05T14:23:19.251Z,100272.69
2022-12-05T14:24:53.483Z,100269.16
2022-12-05T14:26:41.676Z,100259.34
2022-12-05T14:28:24.361Z,100258.50
2022-12-05T14:30:04.648Z,100255.97
2022-12-05T14:32:02.413Z,100257.94
2022-12-05T14:33:26.243Z,100255.28
2022-12-05T14:35:16.901Z,100250.94
2022-12-05T14:36:44.604Z,100258.06
2022-12-05T14:40:06.296Z,100266.78
2022-12-05T14:41:45.662Z,100265.94
2022-12-05T14:43:18.531Z,100266.66
2022-12-05T14:44:49.720Z,100263.97
2022-12-05T14:46:20.247Z,100265.81
2022-12-05T14:47:52.967Z,100269.31
2022-12-05T14:49:51.922Z,100262.28
2022-12-05T14:51:57.387Z,100275.78
2022-12-05T14:53:44.097Z,100264.78
2022-12-05T14:55:14.370Z,100276.75
2022-12-05T14:56:44.713Z,100275.06
2022-12-05T14:58:19.147Z,100259.75
2022-12-05T14:59:55.238Z,100256.38
2022-12-05T15:01:21.652Z,100271.78
2022-12-05T15:02:48.411Z,100273.25
2022-12-05T15:04:26.431Z,100264.78
2022-12-05T15:05:49.977Z,100277.44
2022-12-05T15:07:21.336Z,100259.91
2022-12-05T15:08:51.414Z,100251.16
2022-12-05T15:10:34.080Z,100253.44
2022-12-05T15:12:08.999Z,100258.66
2022-12-05T15:13:39.652Z,100269.88
2022-12-05T15:24:36.640Z,100263.28
2022-12-05T15:58:13.943Z,100251.91
2022-12-05T16:50:34.285Z,100284.78
2022-12-05T16:55:50.779Z,100285.19
2022-12-05T16:57:38.510Z,100285.06
2022-12-05T17:00:14.861Z,100284.06
2022-12-05T17:10:12.747Z,100285.72
2022-12-05T17:14:51.420Z,100273.78
2022-12-05T17:18:26.568Z,100288.63
2022-12-05T17:19:57.156Z,100284.59
2022-12-05T17:21:22.697Z,100288.34
2022-12-05T17:22:46.785Z,100292.00
2022-12-05T17:24:11.661Z,100287.38
2022-12-05T17:25:39.981Z,100284.69
2022-12-05T17:27:02.517Z,100289.03
2022-12-05T17:28:24.556Z,100291.56
2022-12-05T17:30:03.382Z,100285.41
2022-12-05T17:31:42.980Z,100286.22
2022-12-05T17:33:07.599Z,100288.47
2022-12-05T17:35:09.618Z,100292.81
2022-12-05T17:36:48.565Z,100297.19
2022-12-05T17:42:10.757Z,100289.16
2022-12-05T17:43:55.617Z,100287.47
2022-12-05T17:45:48.192Z,100296.72
2022-12-05T17:47:13.936Z,100279.44
2022-12-05T17:48:37.013Z,100296.59
2022-12-05T17:50:07.941Z,100284.34
2022-12-05T17:51:31.151Z,100297.59
2022-12-05T17:53:02.791Z,100285.63
2022-12-05T17:54:28.115Z,100294.47
2022-12-05T17:55:52.385Z,100289.13
2022-12-05T17:57:21.568Z,100280.84
2022-12-05T17:58:44.729Z,100292.47
2022-12-05T18:00:08.284Z,100279.53
2022-12-05T18:01:31.699Z,100277.75
2022-12-05T18:02:53.828Z,100280.81
2022-12-05T18:04:21.409Z,100279.50
2022-12-05T18:05:45.446Z,100275.16
2022-12-05T18:07:33.355Z,100274.31
2022-12-05T18:08:55.606Z,100278.53
2022-12-05T18:10:20.037Z,100273.19
2022-12-05T18:11:44.688Z,100280.19
2022-12-05T18:13:13.187Z,100282.88
2022-12-05T18:14:36.504Z,100272.63
2022-12-05T18:16:01.510Z,100282.88
2022-12-05T18:17:34.508Z,100286.38
2022-12-05T18:19:05.744Z,100285.41
2022-12-05T18:20:36.128Z,100280.06
2022-12-05T18:21:58.708Z,100281.03
2022-12-05T18:23:40.856Z,100277.53
2022-12-05T18:25:06.311Z,100282.72
2022-12-05T18:26:38.419Z,100286.38
2022-12-05T18:28:04.375Z,100292.72
2022-12-05T18:29:31.148Z,100282.03
2022-12-05T18:31:05.089Z,100284.00
2022-12-05T18:32:33.370Z,100282.78
2022-12-05T18:34:05.755Z,100285.84
2022-12-05T18:35:58.046Z,100291.31
2022-12-05T18:37:22.507Z,100283.31
2022-12-05T18:38:45.787Z,100280.63
2022-12-05T18:40:13.379Z,100279.97
2022-12-05T18:41:37.074Z,100280.81
2022-12-05T18:42:59.309Z,100288.66
2022-12-05T18:44:42.570Z,100283.31
2022-12-05T18:46:16.401Z,100286.97
2022-12-05T18:47:40.098Z,100290.34
2022-12-05T18:49:03.625Z,100278.97
2022-12-05T18:50:29.990Z,100282.34
2022-12-05T18:51:53.779Z,100278.66
2022-12-05T18:53:18.688Z,100270.50
2022-12-05T18:54:40.597Z,100275.84
2022-12-05T18:56:21.776Z,100273.19
2022-12-05T18:57:51.211Z,100274.00
2022-12-05T18:59:18.620Z,100276.00
2022-12-05T19:00:40.710Z,100282.72
2022-12-05T19:05:11.992Z,100274.53
2022-12-05T19:06:42.945Z,100275.56
2022-12-05T19:08:08.954Z,100280.59
2022-12-05T19:09:33.447Z,100270.50
2022-12-05T19:11:07.733Z,100265.16
2022-12-05T19:12:30.322Z,100276.78
2022-12-05T19:13:56.606Z,100264.72
2022-12-05T19:15:21.196Z,100270.47
2022-12-05T19:16:45.080Z,100274.97
2022-12-05T19:18:10.515Z,100267.91
2022-12-05T19:19:37.131Z,100272.97
2022-12-05T19:21:02.957Z,100273.13
2022-12-05T19:22:27.367Z,100280.16
2022-12-05T19:23:49.656Z,100286.31
2022-12-05T19:25:11.802Z,100281.16
2022-12-05T19:26:36.255Z,100287.19
2022-12-05T19:27:58.696Z,100282.69
2022-12-05T19:29:21.934Z,100288.88
2022-12-05T19:30:47.108Z,100282.69
2022-12-05T19:32:12.441Z,100282.50